Time;durP1;ratioP1;P1;durP2;ratioP2;P2;SDS_P1;SDS_P2;PMS_P1;PMS_P2;Temp;Humidity;BMP_temperature;BMP_pressure;BME280_temperature;BME280_humidity;BME280_pressure;Samples;Min_cycle;Max_cycle;Signal;HPM_P1;HPM_P2
2023/04/30 00:02:14;;;;;;;;;15.00;14.00;21.50;37.60;;;;;;109915;1252;53827;-64
2023/04/30 00:04:41;;;;;;;;;16.50;15.00;21.40;37.30;;;;;;110003;1255;49522;-64
2023/04/30 00:07:08;;;;;;;;;17.00;15.00;21.40;37.40;;;;;;109975;1255;50206;-63
2023/04/30 00:09:35;;;;;;;;;13.50;12.50;21.50;37.50;;;;;;109906;1252;45787;-63
2023/04/30 00:12:02;;;;;;;;;21.50;14.50;21.50;37.50;;;;;;109933;1252;56621;-64
2023/04/30 00:14:29;;;;;;;;;13.00;11.33;21.40;37.40;;;;;;109972;1257;53418;-63
2023/04/30 00:16:56;;;;;;;;;14.00;13.00;21.40;36.90;;;;;;109957;1252;49000;-63
2023/04/30 00:19:23;;;;;;;;;16.00;14.50;21.40;37.40;;;;;;109992;1252;49423;-63
2023/04/30 00:21:50;;;;;;;;;15.00;12.00;21.40;37.40;;;;;;109924;1252;45351;-62
2023/04/30 00:24:17;;;;;;;;;16.00;14.67;21.40;37.40;;;;;;109921;1257;56116;-63
2023/04/30 00:26:44;;;;;;;;;17.00;15.00;21.40;37.50;;;;;;109943;1252;54226;-62
2023/04/30 00:29:11;;;;;;;;;14.00;12.00;21.40;37.50;;;;;;109921;1253;49786;-63
2023/04/30 00:31:38;;;;;;;;;;;21.30;37.30;;;;;;109901;1252;49305;-63
2023/04/30 00:34:05;;;;;;;;;16.00;14.00;21.40;37.50;;;;;;109994;1255;45869;-64
2023/04/30 00:36:32;;;;;;;;;14.50;13.00;21.40;37.50;;;;;;109998;1252;56676;-63
2023/04/30 00:38:59;;;;;;;;;17.00;13.00;21.30;37.40;;;;;;109978;1255;55041;-63
2023/04/30 00:41:27;;;;;;;;;18.00;15.00;21.30;37.40;;;;;;109960;1254;49832;-62
2023/04/30 00:43:53;;;;;;;;;15.00;13.00;21.30;37.60;;;;;;109895;1252;49470;-63
2023/04/30 00:46:20;;;;;;;;;15.00;14.00;21.30;37.60;;;;;;110317;1254;45776;-63
2023/04/30 00:48:48;;;;;;;;;20.00;16.00;21.30;37.50;;;;;;109941;1252;55872;-63
2023/04/30 00:51:15;;;;;;;;;14.00;13.00;21.30;37.40;;;;;;109954;1252;54219;-62
2023/04/30 00:53:42;;;;;;;;;18.00;13.00;21.30;37.40;;;;;;110004;1252;50021;-63
2023/04/30 00:56:10;;;;;;;;;15.00;14.00;21.30;37.40;;;;;;109959;1254;48963;-63
2023/04/30 00:58:37;;;;;;;;;15.00;13.00;21.20;37.20;;;;;;109974;1255;46495;-62
2023/04/30 01:01:05;;;;;;;;;15.67;14.00;21.30;37.50;;;;;;109986;1254;56551;-64
2023/04/30 01:03:34;;;;;;;;;17.50;14.25;21.20;37.40;;;;;;109976;1252;54202;-64
2023/04/30 01:06:04;;;;;;;;;15.33;14.00;21.30;37.50;;;;;;109960;1257;49807;-64
2023/04/30 01:08:32;;;;;;;;;17.00;15.00;21.30;37.50;;;;;;109951;1252;49743;-64
2023/04/30 01:11:16;;;;;;;;;16.00;14.00;21.20;37.40;;;;;;109988;1257;46022;-64
2023/04/30 01:14:03;;;;;;;;;16.67;15.00;21.30;37.50;;;;;;109908;1252;55349;-64
2023/04/30 01:16:35;;;;;;;;;18.00;15.00;21.20;37.40;;;;;;110007;1257;53505;-65
2023/04/30 01:19:19;;;;;;;;;17.00;15.00;21.20;37.40;;;;;;109934;1254;49446;-64
2023/04/30 01:21:48;;;;;;;;;14.50;13.00;21.20;37.90;;;;;;109935;1254;49857;-64
2023/04/30 01:25:03;;;;;;;;;18.00;16.50;21.20;37.40;;;;;;109926;1257;45903;-63
2023/04/30 01:27:51;;;;;;;;;14.67;13.67;21.20;37.30;;;;;;109740;1253;56754;-62
2023/04/30 01:30:19;;;;;;;;;15.00;13.00;21.20;37.30;;;;;;110001;1252;54083;-63
2023/04/30 01:32:46;;;;;;;;;16.00;14.00;21.20;37.20;;;;;;109963;1252;50310;-63
2023/04/30 01:35:12;;;;;;;;;16.00;15.00;21.20;37.30;;;;;;109989;1252;49391;-63
2023/04/30 01:38:10;;;;;;;;;18.00;15.50;21.20;37.40;;;;;;109984;1252;45593;-63
2023/04/30 01:40:59;;;;;;;;;16.00;14.00;21.20;37.30;;;;;;109943;1257;55497;-62
2023/04/30 01:43:32;;;;;;;;;18.50;16.00;21.20;37.40;;;;;;110094;1255;54287;-61
2023/04/30 01:46:28;;;;;;;;;13.67;12.67;21.20;37.40;;;;;;109976;1252;49333;-63
2023/04/30 01:49:18;;;;;;;;;18.33;15.00;21.20;37.50;;;;;;109857;1252;49979;-64
2023/04/30 01:51:47;;;;;;;;;14.00;12.67;21.20;37.30;;;;;;109887;1252;46706;-62
2023/04/30 01:54:20;;;;;;;;;18.50;15.50;21.20;37.30;;;;;;109959;1257;55315;-63
2023/04/30 01:56:55;;;;;;;;;15.00;14.00;21.20;37.30;;;;;;109920;1254;54109;-63
2023/04/30 01:59:23;;;;;;;;;15.00;14.00;21.10;37.20;;;;;;110015;1251;49680;-64
2023/04/30 02:01:51;;;;;;;;;17.00;16.00;21.20;37.50;;;;;;109879;1257;49317;-62
2023/04/30 02:04:18;;;;;;;;;16.00;13.00;21.10;37.50;;;;;;110026;1254;45761;-63
2023/04/30 02:06:45;;;;;;;;;15.00;14.00;21.10;37.30;;;;;;109979;1257;55400;-63
2023/04/30 02:09:12;;;;;;;;;16.00;15.00;21.10;37.40;;;;;;109965;1252;53837;-63
2023/04/30 02:11:39;;;;;;;;;17.50;16.00;21.10;37.30;;;;;;109953;1256;49818;-62
2023/04/30 02:14:06;;;;;;;;;17.00;14.67;21.00;37.30;;;;;;110012;1252;49496;-63
2023/04/30 02:16:33;;;;;;;;;15.50;14.00;21.00;37.40;;;;;;110001;1253;46295;-63
2023/04/30 02:19:01;;;;;;;;;14.50;12.50;21.00;37.40;;;;;;109932;1252;56340;-62
2023/04/30 02:21:28;;;;;;;;;16.00;14.00;21.00;37.40;;;;;;109955;1257;54937;-63
2023/04/30 02:23:55;;;;;;;;;16.00;13.00;21.00;37.40;;;;;;109909;1256;49013;-63
2023/04/30 02:26:22;;;;;;;;;15.00;14.00;21.00;37.60;;;;;;109914;1255;49407;-63
2023/04/30 02:28:49;;;;;;;;;15.67;14.33;21.00;37.50;;;;;;109900;1252;45345;-62
2023/04/30 02:31:16;;;;;;;;;14.00;13.00;21.00;37.40;;;;;;109965;1254;55793;-63
2023/04/30 02:33:43;;;;;;;;;16.00;13.00;21.00;37.70;;;;;;109926;1255;54656;-64
2023/04/30 02:36:09;;;;;;;;;17.00;15.00;20.90;37.40;;;;;;109984;1257;49142;-64
2023/04/30 02:38:36;;;;;;;;;15.00;13.00;20.90;37.40;;;;;;109913;1252;50437;-62
2023/04/30 02:41:03;;;;;;;;;13.00;12.00;20.90;37.40;;;;;;109876;1257;45390;-62
2023/04/30 02:43:30;;;;;;;;;16.00;15.00;20.90;37.60;;;;;;109879;1252;55341;-64
2023/04/30 02:45:57;;;;;;;;;17.00;12.50;20.90;37.40;;;;;;110135;1252;54578;-62
2023/04/30 02:48:24;;;;;;;;;14.33;12.00;20.90;37.60;;;;;;109931;1252;50295;-63
2023/04/30 02:50:51;;;;;;;;;14.00;12.00;20.90;37.60;;;;;;109929;1251;50043;-63
2023/04/30 02:53:18;;;;;;;;;16.50;14.00;20.90;37.40;;;;;;109915;1254;46922;-63
2023/04/30 02:55:45;;;;;;;;;15.00;14.00;20.90;37.40;;;;;;109904;1256;56613;-64
2023/04/30 02:58:12;;;;;;;;;15.00;14.00;20.90;37.50;;;;;;109933;1257;54338;-64
2023/04/30 03:00:39;;;;;;;;;13.50;12.00;20.90;37.50;;;;;;109968;1252;49204;-62
2023/04/30 03:03:06;;;;;;;;;16.00;15.00;20.80;37.40;;;;;;109913;1252;49920;-63
2023/04/30 03:05:33;;;;;;;;;15.00;14.00;20.90;37.50;;;;;;109970;1252;45548;-63
2023/04/30 03:08:00;;;;;;;;;15.50;14.50;20.80;37.60;;;;;;109909;1254;56523;-64
2023/04/30 03:10:27;;;;;;;;;16.00;14.67;20.80;37.40;;;;;;109908;1252;54796;-63
2023/04/30 03:12:54;;;;;;;;;16.50;15.00;20.80;37.60;;;;;;109954;1254;49862;-62
2023/04/30 03:15:21;;;;;;;;;14.00;13.00;20.80;37.50;;;;;;109962;1252;49902;-63
2023/04/30 03:17:48;;;;;;;;;14.00;13.00;20.80;37.50;;;;;;109911;1252;45271;-63
2023/04/30 03:20:15;;;;;;;;;16.00;13.00;20.80;37.40;;;;;;109934;1256;55964;-62
2023/04/30 03:22:42;;;;;;;;;17.00;14.67;20.80;37.50;;;;;;109877;1257;53428;-63
2023/04/30 03:25:09;;;;;;;;;16.50;15.00;20.80;37.50;;;;;;109956;1257;50164;-63
2023/04/30 03:27:36;;;;;;;;;16.00;15.00;20.80;37.50;;;;;;109994;1254;50123;-63
2023/04/30 03:30:04;;;;;;;;;18.00;16.00;20.70;37.40;;;;;;109928;1257;45692;-64
2023/04/30 03:32:31;;;;;;;;;17.33;14.67;20.70;37.60;;;;;;109977;1257;56747;-63
2023/04/30 03:34:58;;;;;;;;;12.00;11.00;20.70;37.40;;;;;;109952;1252;54406;-64
2023/04/30 03:37:25;;;;;;;;;17.00;14.00;20.70;37.40;;;;;;109935;1254;49932;-64
2023/04/30 03:39:52;;;;;;;;;14.00;13.00;20.70;37.40;;;;;;109943;1252;48874;-64
2023/04/30 03:42:20;;;;;;;;;14.00;13.00;20.70;37.40;;;;;;109907;1257;45486;-64
2023/04/30 03:44:46;;;;;;;;;14.00;12.00;20.70;37.50;;;;;;110030;1257;56826;-65
2023/04/30 03:47:14;;;;;;;;;14.50;13.00;20.70;37.50;;;;;;110057;1252;55023;-63
2023/04/30 03:49:41;;;;;;;;;15.00;13.00;20.70;37.50;;;;;;109965;1257;50070;-63
2023/04/30 03:52:07;;;;;;;;;16.00;14.00;20.70;37.10;;;;;;109949;1257;48964;-64
2023/04/30 03:54:34;;;;;;;;;15.00;13.00;20.70;37.60;;;;;;110009;1253;47133;-63
2023/04/30 03:57:06;;;;;;;;;15.00;14.00;20.70;37.50;;;;;;110011;1255;56533;-63
2023/04/30 03:59:33;;;;;;;;;17.50;16.00;20.60;37.40;;;;;;109804;1258;53820;-64
2023/04/30 04:02:00;;;;;;;;;17.67;14.33;20.70;37.50;;;;;;109925;1252;49281;-64
2023/04/30 04:04:28;;;;;;;;;17.00;13.00;20.60;37.40;;;;;;109963;1252;49734;-64
2023/04/30 04:06:55;;;;;;;;;16.00;14.00;20.60;37.40;;;;;;109899;1252;46974;-65
2023/04/30 04:09:22;;;;;;;;;15.00;13.00;20.70;37.50;;;;;;110065;1256;55423;-65
2023/04/30 04:11:49;;;;;;;;;17.00;13.33;20.60;37.40;;;;;;110074;1256;54639;-64
2023/04/30 04:14:16;;;;;;;;;16.00;14.50;20.70;37.50;;;;;;110021;1252;49948;-64
2023/04/30 04:16:43;;;;;;;;;13.00;12.00;20.60;37.50;;;;;;110015;1257;49571;-63
2023/04/30 04:19:12;;;;;;;;;14.00;12.00;20.60;37.50;;;;;;109987;1252;46025;-63
2023/04/30 04:21:38;;;;;;;;;16.00;14.00;20.70;37.50;;;;;;109965;1257;56021;-62
2023/04/30 04:24:07;;;;;;;;;14.67;13.00;20.60;37.70;;;;;;109990;1252;54144;-63
2023/04/30 04:26:35;;;;;;;;;14.67;13.00;20.60;37.50;;;;;;109963;1257;49509;-63
2023/04/30 04:29:07;;;;;;;;;15.00;13.00;20.60;37.70;;;;;;109936;1257;50167;-63
2023/04/30 04:31:34;;;;;;;;;16.00;14.00;20.60;37.50;;;;;;110024;1257;46347;-64
2023/04/30 04:34:03;;;;;;;;;17.50;15.00;20.60;37.50;;;;;;110097;1253;55724;-65
2023/04/30 04:36:32;;;;;;;;;17.00;15.33;20.60;37.50;;;;;;109951;1252;53832;-65
2023/04/30 04:39:02;;;;;;;;;16.50;14.00;20.60;37.70;;;;;;109969;1255;49939;-65
2023/04/30 04:41:37;;;;;;;;;14.00;12.00;20.60;37.50;;;;;;109983;1252;50455;-64
2023/04/30 04:44:04;;;;;;;;;15.50;14.00;20.60;37.50;;;;;;110023;1252;45410;-63
2023/04/30 04:46:31;;;;;;;;;16.00;14.00;20.60;37.50;;;;;;109970;1258;56427;-64
2023/04/30 04:48:58;;;;;;;;;15.50;14.00;20.60;37.50;;;;;;110027;1257;54104;-62
2023/04/30 04:51:26;;;;;;;;;16.00;14.00;20.60;37.70;;;;;;108993;1252;1273639;-62
2023/04/30 04:53:53;;;;;;;;;14.50;12.50;20.60;37.70;;;;;;110047;1255;50091;-62
2023/04/30 04:56:20;;;;;;;;;15.00;13.00;20.60;37.50;;;;;;110021;1252;45335;-63
2023/04/30 04:58:47;;;;;;;;;15.50;14.00;20.60;37.70;;;;;;110012;1252;55772;-63
2023/04/30 05:01:14;;;;;;;;;15.33;12.67;20.60;37.40;;;;;;109959;1257;53449;-63
2023/04/30 05:03:41;;;;;;;;;16.67;13.33;20.60;37.50;;;;;;109989;1255;50392;-62
2023/04/30 05:06:08;;;;;;;;;15.00;13.00;20.70;37.50;;;;;;110007;1255;50248;-63
2023/04/30 05:08:35;;;;;;;;;16.00;14.00;20.60;37.50;;;;;;109940;1252;46042;-64
2023/04/30 05:11:02;;;;;;;;;17.67;15.00;20.60;37.60;;;;;;109959;1252;56813;-63
2023/04/30 05:13:29;;;;;;;;;14.00;13.00;20.70;37.50;;;;;;109943;1252;53555;-62
2023/04/30 05:15:56;;;;;;;;;13.00;12.00;20.70;37.50;;;;;;109974;1254;50204;-62
2023/04/30 05:18:23;;;;;;;;;17.00;15.50;20.70;37.50;;;;;;109963;1255;49804;-64
2023/04/30 05:20:50;;;;;;;;;14.00;13.00;20.70;37.50;;;;;;109972;1257;45294;-64
2023/04/30 05:23:17;;;;;;;;;15.00;14.00;20.60;37.40;;;;;;109996;1255;56288;-64
2023/04/30 05:25:44;;;;;;;;;17.00;14.00;20.60;37.40;;;;;;110075;1252;54397;-63
2023/04/30 05:28:11;;;;;;;;;15.00;13.00;20.60;37.60;;;;;;109964;1257;49509;-63
2023/04/30 05:30:38;;;;;;;;;16.00;15.00;20.70;37.40;;;;;;109994;1252;49478;-64
2023/04/30 05:33:05;;;;;;;;;15.00;13.00;20.70;37.40;;;;;;109911;1257;45777;-63
2023/04/30 05:35:34;;;;;;;;;14.00;13.00;20.70;37.50;;;;;;109951;1256;55461;-63
2023/04/30 05:38:02;;;;;;;;;16.00;14.00;20.70;37.50;;;;;;109977;1252;54772;-63
2023/04/30 05:40:29;;;;;;;;;16.00;15.00;20.70;37.40;;;;;;109861;1257;49287;-63
2023/04/30 05:42:56;;;;;;;;;15.00;13.00;20.70;37.40;;;;;;109917;1252;49907;-62
2023/04/30 05:45:23;;;;;;;;;14.50;13.00;20.70;37.50;;;;;;109927;1256;45600;-63
2023/04/30 05:47:50;;;;;;;;;13.00;11.50;20.70;37.50;;;;;;109916;1253;57626;-62
2023/04/30 05:50:17;;;;;;;;;16.00;14.33;20.70;37.50;;;;;;109935;1257;54052;-63
2023/04/30 05:52:44;;;;;;;;;14.00;13.00;20.70;37.70;;;;;;109956;1256;49552;-63
2023/04/30 05:55:12;;;;;;;;;14.25;13.00;20.70;37.50;;;;;;109917;1257;50412;-63
2023/04/30 05:57:40;;;;;;;;;14.00;12.00;20.70;37.50;;;;;;109953;1257;45885;-62
2023/04/30 06:00:08;;;;;;;;;16.00;12.00;20.70;37.90;;;;;;110164;1252;55768;-63
2023/04/30 06:02:35;;;;;;;;;13.00;12.00;20.70;37.50;;;;;;109902;1257;53529;-63
2023/04/30 06:05:02;;;;;;;;;14.00;13.00;20.70;37.50;;;;;;110035;1257;49534;-63
2023/04/30 06:07:29;;;;;;;;;14.50;13.50;20.70;37.50;;;;;;109854;1252;48913;-63
2023/04/30 06:09:56;;;;;;;;;14.50;13.75;20.70;37.50;;;;;;109946;1257;45494;-64
2023/04/30 06:12:23;;;;;;;;;16.00;14.00;20.80;37.60;;;;;;109961;1257;55250;-64
2023/04/30 06:14:51;;;;;;;;;15.00;14.00;20.70;37.50;;;;;;109944;1252;54505;-63
2023/04/30 06:17:18;;;;;;;;;14.00;13.00;20.70;37.50;;;;;;109940;1252;49673;-62
2023/04/30 06:19:45;;;;;;;;;14.00;12.00;20.80;37.60;;;;;;109914;1253;50170;-63
2023/04/30 06:22:12;;;;;;;;;15.00;13.00;20.80;37.50;;;;;;109926;1257;46110;-63
2023/04/30 06:24:38;;;;;;;;;14.67;13.33;20.80;37.70;;;;;;109927;1255;56358;-64
2023/04/30 06:27:05;;;;;;;;;13.00;12.00;20.80;37.50;;;;;;109917;1256;53622;-63
2023/04/30 06:29:32;;;;;;;;;15.00;13.00;20.90;37.60;;;;;;109909;1252;49593;-62
2023/04/30 06:31:59;;;;;;;;;14.67;12.00;20.90;37.70;;;;;;109931;1253;50521;-63
2023/04/30 06:34:26;;;;;;;;;15.00;13.00;20.90;37.50;;;;;;109988;1256;46143;-63
2023/04/30 06:36:53;;;;;;;;;15.25;13.00;20.90;37.50;;;;;;109946;1256;56611;-63
2023/04/30 06:39:20;;;;;;;;;16.00;15.00;21.00;37.60;;;;;;109985;1252;53428;-63
2023/04/30 06:41:47;;;;;;;;;13.00;12.00;21.00;37.70;;;;;;109950;1255;49891;-63
2023/04/30 06:44:14;;;;;;;;;15.00;14.00;21.00;37.70;;;;;;110039;1255;49595;-63
2023/04/30 06:46:41;;;;;;;;;14.00;12.00;21.10;37.60;;;;;;109992;1252;45859;-63
2023/04/30 06:49:08;;;;;;;;;12.00;11.00;21.10;37.50;;;;;;109908;1256;56251;-62
2023/04/30 06:51:35;;;;;;;;;14.00;13.00;21.20;37.50;;;;;;109971;1256;54560;-63
2023/04/30 06:54:02;;;;;;;;;13.00;11.00;21.20;37.50;;;;;;109979;1252;50278;-63
2023/04/30 06:56:29;;;;;;;;;13.00;12.00;21.20;37.50;;;;;;109922;1252;49084;-63
2023/04/30 06:58:56;;;;;;;;;14.00;12.00;21.30;38.10;;;;;;109952;1257;45938;-63
2023/04/30 07:01:23;;;;;;;;;13.00;12.00;21.30;37.70;;;;;;109935;1252;55488;-64
2023/04/30 07:03:53;;;;;;;;;14.50;13.50;21.40;37.60;;;;;;110020;1253;54086;-65
2023/04/30 07:06:20;;;;;;;;;14.50;13.00;21.40;37.50;;;;;;110053;1252;49576;-63
2023/04/30 07:08:47;;;;;;;;;15.00;13.00;21.40;37.50;;;;;;109959;1257;50293;-64
2023/04/30 07:11:14;;;;;;;;;14.00;13.00;21.50;37.40;;;;;;109926;1252;45547;-65
2023/04/30 07:13:42;;;;;;;;;18.00;17.00;21.50;37.00;;;;;;109967;1256;55787;-62
2023/04/30 07:16:09;;;;;;;;;12.50;11.50;21.60;37.50;;;;;;110001;1252;54274;-64
2023/04/30 07:18:36;;;;;;;;;12.00;11.00;21.60;37.60;;;;;;109934;1256;49959;-64
2023/04/30 07:21:04;;;;;;;;;14.00;13.00;21.60;37.40;;;;;;110044;1252;49973;-63
2023/04/30 07:23:31;;;;;;;;;12.00;11.00;21.60;37.30;;;;;;109987;1252;45231;-64
2023/04/30 07:25:58;;;;;;;;;14.00;11.67;21.70;37.50;;;;;;110072;1257;56650;-64
2023/04/30 07:28:25;;;;;;;;;13.00;11.50;21.70;37.50;;;;;;109973;1254;54539;-63
2023/04/30 07:30:52;;;;;;;;;16.33;13.00;21.70;37.40;;;;;;109907;1256;49586;-63
2023/04/30 07:33:19;;;;;;;;;13.00;11.67;21.70;37.40;;;;;;109953;1252;48972;-62
2023/04/30 07:35:46;;;;;;;;;14.00;13.00;21.80;37.40;;;;;;109949;1255;45620;-64
2023/04/30 07:38:12;;;;;;;;;14.00;13.00;21.80;37.40;;;;;;109984;1257;55385;-63
2023/04/30 07:40:39;;;;;;;;;13.00;12.00;21.80;37.60;;;;;;109980;1256;54199;-63
2023/04/30 07:43:06;;;;;;;;;13.67;12.67;21.90;37.70;;;;;;110002;1256;49640;-64
2023/04/30 07:45:35;;;;;;;;;14.00;13.00;21.90;37.40;;;;;;109992;1254;49953;-63
2023/04/30 07:48:02;;;;;;;;;14.00;11.00;21.90;37.40;;;;;;110020;1256;45584;-64
2023/04/30 07:50:32;;;;;;;;;14.00;12.00;22.00;37.40;;;;;;110024;1252;55599;-64
2023/04/30 07:53:00;;;;;;;;;14.67;13.00;22.00;37.60;;;;;;109980;1258;53902;-64
2023/04/30 07:55:27;;;;;;;;;14.00;13.00;22.10;37.40;;;;;;109998;1254;51116;-64
2023/04/30 07:57:54;;;;;;;;;12.50;10.00;22.20;37.50;;;;;;109956;1258;49576;-64
2023/04/30 08:00:21;;;;;;;;;14.00;12.00;22.20;37.30;;;;;;109968;1252;45988;-64
2023/04/30 08:02:49;;;;;;;;;15.00;11.00;22.30;37.40;;;;;;109944;1256;55476;-64
2023/04/30 08:05:16;;;;;;;;;14.00;13.00;22.30;37.30;;;;;;110099;1252;53861;-64
2023/04/30 08:07:43;;;;;;;;;11.00;10.00;22.30;37.30;;;;;;110007;1252;49131;-64
2023/04/30 08:10:10;;;;;;;;;12.50;11.50;22.40;37.40;;;;;;110051;1256;49302;-64
2023/04/30 08:12:38;;;;;;;;;12.00;11.00;22.50;37.40;;;;;;110035;1258;45940;-63
2023/04/30 08:15:06;;;;;;;;;11.67;11.00;22.50;37.30;;;;;;110033;1252;55846;-64
2023/04/30 08:17:34;;;;;;;;;15.00;13.00;22.50;37.30;;;;;;109949;1257;54564;-63
2023/04/30 08:20:03;;;;;;;;;13.00;12.00;22.60;37.30;;;;;;109972;1257;49886;-63
2023/04/30 08:22:30;;;;;;;;;12.50;11.50;22.70;37.30;;;;;;109988;1254;49324;-64
2023/04/30 08:24:57;;;;;;;;;12.00;11.00;22.70;37.30;;;;;;109972;1255;46181;-62
2023/04/30 08:27:24;;;;;;;;;13.67;11.00;22.80;37.30;;;;;;110083;1252;55591;-63
2023/04/30 08:29:51;;;;;;;;;15.00;12.00;22.80;37.20;;;;;;110039;1252;53811;-63
2023/04/30 08:32:18;;;;;;;;;13.00;12.00;22.90;37.30;;;;;;109972;1252;49309;-64
2023/04/30 08:34:45;;;;;;;;;12.50;11.50;22.90;37.20;;;;;;110023;1252;48851;-64
2023/04/30 08:37:12;;;;;;;;;12.00;11.00;22.90;37.20;;;;;;109984;1257;45788;-64
2023/04/30 08:39:39;;;;;;;;;13.67;12.00;22.90;37.20;;;;;;110025;1252;55917;-64
2023/04/30 08:42:08;;;;;;;;;13.00;11.00;23.00;37.30;;;;;;109922;1255;54105;-63
2023/04/30 08:44:38;;;;;;;;;10.00;9.00;23.00;37.20;;;;;;109981;1256;49119;-63
2023/04/30 08:47:07;;;;;;;;;13.00;12.00;23.00;37.30;;;;;;109951;1252;49220;-63
2023/04/30 08:49:35;;;;;;;;;11.00;10.00;23.00;37.40;;;;;;110063;1255;45506;-64
2023/04/30 08:52:02;;;;;;;;;11.00;10.00;23.00;37.10;;;;;;109949;1254;55580;-63
2023/04/30 08:54:31;;;;;;;;;14.00;12.00;23.10;37.20;;;;;;109933;1255;54395;-63
2023/04/30 08:56:59;;;;;;;;;13.00;11.00;23.10;37.20;;;;;;110041;1256;49470;-63
2023/04/30 08:59:26;;;;;;;;;14.00;12.00;23.10;37.20;;;;;;110098;1252;50543;-63
2023/04/30 09:01:54;;;;;;;;;11.50;10.50;23.10;37.10;;;;;;109999;1256;45388;-64
2023/04/30 09:04:21;;;;;;;;;11.67;10.00;23.20;37.20;;;;;;109992;1257;56071;-64
2023/04/30 09:06:51;;;;;;;;;13.00;12.00;23.20;37.20;;;;;;109923;1252;54414;-63
2023/04/30 09:09:18;;;;;;;;;12.00;11.00;23.30;37.20;;;;;;109992;1256;49417;-63
2023/04/30 09:11:45;;;;;;;;;10.50;9.50;23.30;37.40;;;;;;109900;1252;48984;-64
2023/04/30 09:14:12;;;;;;;;;13.50;12.00;23.40;37.20;;;;;;109989;1254;46045;-63
2023/04/30 09:16:51;;;;;;;;;14.00;12.50;23.40;37.20;;;;;;110006;1252;55168;-64
2023/04/30 09:19:29;;;;;;;;;11.00;10.00;23.40;37.20;;;;;;110081;1256;54078;-65
2023/04/30 09:21:56;;;;;;;;;15.00;13.00;23.50;37.20;;;;;;109981;1255;50782;-64
2023/04/30 09:24:23;;;;;;;;;14.00;11.50;23.60;37.20;;;;;;109947;1257;49566;-64
2023/04/30 09:26:51;;;;;;;;;11.00;10.00;23.60;37.20;;;;;;109990;1252;46336;-64
2023/04/30 09:29:17;;;;;;;;;11.00;10.00;23.60;37.10;;;;;;109945;1257;55930;-64
2023/04/30 09:31:46;;;;;;;;;14.50;12.50;23.60;37.10;;;;;;109972;1256;54224;-62
2023/04/30 09:34:13;;;;;;;;;12.00;11.00;23.60;37.10;;;;;;109934;1252;49338;-64
2023/04/30 09:36:53;;;;;;;;;11.00;10.00;23.60;37.10;;;;;;109941;1252;50838;-65
2023/04/30 09:39:21;;;;;;;;;10.00;9.00;23.60;37.10;;;;;;110011;1255;45991;-62
2023/04/30 09:41:50;;;;;;;;;10.00;9.00;23.70;37.20;;;;;;109934;1252;55576;-63
2023/04/30 09:44:31;;;;;;;;;11.00;10.00;23.70;36.70;;;;;;110027;1254;55014;-64
2023/04/30 09:46:58;;;;;;;;;11.00;10.00;23.60;37.00;;;;;;109936;1252;49166;-64
2023/04/30 09:49:26;;;;;;;;;12.00;11.00;23.70;37.10;;;;;;109956;1253;49176;-65
2023/04/30 09:51:58;;;;;;;;;12.00;11.00;23.70;37.10;;;;;;109979;1257;45614;-64
2023/04/30 09:54:30;;;;;;;;;15.00;13.00;23.70;37.10;;;;;;110020;1252;55480;-64
2023/04/30 09:57:00;;;;;;;;;12.00;11.00;23.70;37.10;;;;;;110009;1256;54233;-64
2023/04/30 09:59:33;;;;;;;;;10.67;9.67;23.70;37.30;;;;;;110123;1256;50929;-63
2023/04/30 10:02:02;;;;;;;;;14.00;12.00;23.80;37.20;;;;;;109942;1257;49919;-64
2023/04/30 10:04:33;;;;;;;;;10.00;9.00;23.80;37.10;;;;;;109983;1256;45184;-64
2023/04/30 10:07:06;;;;;;;;;12.00;11.00;23.80;37.70;;;;;;110032;1256;55808;-64
2023/04/30 10:09:39;;;;;;;;;11.00;10.00;23.80;37.10;;;;;;110065;1252;54898;-64
2023/04/30 10:12:11;;;;;;;;;12.50;11.50;23.90;37.10;;;;;;110026;1252;49866;-63
2023/04/30 10:14:44;;;;;;;;;11.00;10.00;23.90;37.10;;;;;;109786;1258;49433;-63
2023/04/30 10:17:14;;;;;;;;;11.00;10.00;23.90;37.30;;;;;;109984;1252;46438;-63
2023/04/30 10:19:45;;;;;;;;;10.00;9.00;23.90;37.00;;;;;;109984;1252;56430;-64
2023/04/30 10:22:13;;;;;;;;;12.00;11.00;23.90;37.00;;;;;;110026;1252;53897;-64
2023/04/30 10:24:43;;;;;;;;;10.00;9.00;23.90;37.00;;;;;;109986;1254;49684;-62
2023/04/30 10:27:10;;;;;;;;;12.00;11.00;23.90;37.20;;;;;;110044;1257;50499;-65
2023/04/30 10:29:37;;;;;;;;;12.50;10.50;23.90;37.00;;;;;;109967;1257;45767;-66
2023/04/30 10:32:05;;;;;;;;;11.00;10.00;23.90;37.00;;;;;;109996;1257;55648;-65
2023/04/30 10:34:47;;;;;;;;;12.00;11.00;23.90;37.20;;;;;;110026;1256;53722;-63
2023/04/30 10:37:23;;;;;;;;;11.00;10.00;23.90;37.10;;;;;;109959;1252;50560;-64
2023/04/30 10:39:50;;;;;;;;;13.00;10.00;23.90;37.10;;;;;;109986;1253;49652;-65
2023/04/30 10:42:17;;;;;;;;;13.00;12.00;23.90;37.30;;;;;;110027;1257;45401;-63
2023/04/30 10:44:45;;;;;;;;;11.00;10.00;24.00;37.30;;;;;;109984;1257;56269;-63
2023/04/30 10:47:12;;;;;;;;;12.00;10.00;24.00;37.10;;;;;;109960;1252;54355;-63
2023/04/30 10:49:41;;;;;;;;;10.00;9.00;24.00;37.10;;;;;;109892;1257;49860;-63
2023/04/30 10:52:10;;;;;;;;;14.67;11.33;24.00;36.70;;;;;;110049;1255;48962;-62
2023/04/30 10:54:37;;;;;;;;;11.50;10.00;24.00;37.10;;;;;;109992;1256;46247;-67
2023/04/30 10:57:18;;;;;;;;;11.00;10.00;24.00;37.10;;;;;;109983;1253;55948;-64
2023/04/30 10:59:53;;;;;;;;;10.50;9.50;24.00;37.10;;;;;;110022;1256;53868;-66
2023/04/30 11:02:20;;;;;;;;;11.33;9.67;24.10;37.40;;;;;;110040;1257;50386;-66
2023/04/30 11:05:09;;;;;;;;;12.00;11.00;24.10;37.10;;;;;;109984;1256;48883;-64
2023/04/30 11:07:37;;;;;;;;;10.50;9.50;24.10;37.40;;;;;;110030;1256;45980;-63
2023/04/30 11:10:07;;;;;;;;;12.00;10.67;24.10;37.10;;;;;;109955;1257;56640;-62
2023/04/30 11:12:40;;;;;;;;;11.00;10.00;24.10;37.00;;;;;;110008;1252;54527;-64
2023/04/30 11:15:14;;;;;;;;;12.00;11.00;24.10;37.10;;;;;;110017;1257;49924;-63
2023/04/30 11:17:44;;;;;;;;;11.00;10.00;24.10;37.10;;;;;;109979;1254;48830;-62
2023/04/30 11:20:13;;;;;;;;;11.00;10.00;24.20;36.70;;;;;;110064;1256;46410;-64
2023/04/30 11:22:40;;;;;;;;;13.00;10.00;24.20;37.10;;;;;;110017;1253;55787;-64
2023/04/30 11:25:14;;;;;;;;;11.00;10.00;24.20;37.10;;;;;;110041;1252;55059;-64
2023/04/30 11:27:46;;;;;;;;;13.00;11.00;24.20;37.10;;;;;;109991;1252;49830;-63
2023/04/30 11:30:17;;;;;;;;;12.00;10.00;24.20;37.10;;;;;;110046;1255;49928;-64
2023/04/30 11:32:46;;;;;;;;;12.00;11.00;24.20;37.10;;;;;;109992;1252;45316;-63
2023/04/30 11:35:17;;;;;;;;;10.75;9.75;24.20;37.10;;;;;;110043;1257;56594;-63
2023/04/30 11:37:44;;;;;;;;;10.00;9.00;24.20;37.10;;;;;;110000;1256;54985;-64
2023/04/30 11:40:13;;;;;;;;;12.00;11.00;24.20;37.00;;;;;;109957;1257;49245;-64
2023/04/30 11:42:45;;;;;;;;;13.00;12.00;24.20;37.10;;;;;;109950;1252;49905;-64
2023/04/30 11:45:19;;;;;;;;;11.50;10.50;24.20;37.10;;;;;;110009;1252;46871;-63
2023/04/30 11:47:48;;;;;;;;;14.50;13.50;24.20;37.10;;;;;;110025;1257;55586;-62
2023/04/30 11:50:18;;;;;;;;;11.50;10.50;24.20;37.00;;;;;;110007;1252;53977;-64
2023/04/30 11:52:49;;;;;;;;;11.00;10.00;24.20;37.10;;;;;;110021;1257;49971;-63
2023/04/30 11:55:17;;;;;;;;;11.33;10.33;24.20;37.00;;;;;;110059;1254;49449;-64
2023/04/30 11:57:48;;;;;;;;;12.00;10.00;24.20;37.70;;;;;;110013;1252;45475;-64
2023/04/30 12:00:18;;;;;;;;;12.00;11.00;24.20;37.00;;;;;;109979;1257;55667;-64
2023/04/30 12:02:47;;;;;;;;;11.00;10.00;24.20;37.00;;;;;;109967;1252;54932;-64
2023/04/30 12:05:19;;;;;;;;;11.00;10.00;24.20;37.00;;;;;;110064;1252;49062;-69
2023/04/30 12:07:49;;;;;;;;;11.00;10.00;24.20;37.10;;;;;;109923;1254;49102;-65
2023/04/30 12:10:18;;;;;;;;;13.00;12.00;24.30;37.10;;;;;;110069;1256;45204;-64
2023/04/30 12:12:46;;;;;;;;;12.50;11.50;24.30;37.50;;;;;;110130;1252;55848;-64
2023/04/30 12:15:26;;;;;;;;;12.00;11.00;24.30;37.10;;;;;;109925;1256;53266;-68
2023/04/30 12:17:55;;;;;;;;;13.00;12.00;24.30;37.10;;;;;;109972;1257;50153;-64
2023/04/30 12:20:27;;;;;;;;;11.00;9.00;24.30;37.10;;;;;;109934;1252;49453;-63
2023/04/30 12:22:54;;;;;;;;;12.00;11.00;24.30;37.10;;;;;;109950;1252;45379;-63
2023/04/30 12:25:21;;;;;;;;;12.00;11.00;24.20;37.00;;;;;;109961;1253;55249;-63
2023/04/30 12:27:50;;;;;;;;;11.00;9.00;24.20;37.00;;;;;;109965;1252;54068;-63